Time;durP1;ratioP1;P1;durP2;ratioP2;P2;SDS_P1;SDS_P2;PMS_P1;PMS_P2;Temp;Humidity;BMP_temperature;BMP_pressure;BME280_temperature;BME280_humidity;BME280_pressure;Samples;Min_cycle;Max_cycle;Signal;HPM_P1;HPM_P2
2022/07/28 00:00:20;;;;;;;7.75;6.95;;;;;;;16.83;78.75977;95289.5;;;;
2022/07/28 00:01:20;;;;;;;7.75;6.95;;;;;;;16.83;78.75977;95289.5;;;;
2022/07/28 00:02:21;;;;;;;7.75;6.95;;;;;;;16.83;78.75977;95289.5;;;;
2022/07/28 00:03:22;;;;;;;8.100001;7.100001;;;;;;;16.63;79.16113;95287.4;;;;
2022/07/28 00:04:22;;;;;;;8.100001;7.100001;;;;;;;16.63;79.16113;95287.4;;;;
2022/07/28 00:05:23;;;;;;;8.100001;7.100001;;;;;;;16.63;79.16113;95287.4;;;;
2022/07/28 00:06:23;;;;;;;8.100001;7.100001;;;;;;;16.63;79.16113;95287.4;;;;
2022/07/28 00:07:25;;;;;;;8.100001;7.100001;;;;;;;16.63;79.16113;95287.4;;;;
2022/07/28 00:08:25;;;;;;;8.100001;7.100001;;;;;;;16.63;79.16113;95287.4;;;;
2022/07/28 00:09:26;;;;;;;8.100001;7.100001;;;;;;;16.63;79.16113;95287.4;;;;
2022/07/28 00:10:26;;;;;;;8.100001;7.100001;;;;;;;16.63;79.16113;95287.4;;;;
2022/07/28 00:11:27;;;;;;;8.100001;7.100001;;;;;;;16.63;79.16113;95287.4;;;;
2022/07/28 00:12:27;;;;;;;8.100001;7.100001;;;;;;;16.63;79.16113;95287.4;;;;
2022/07/28 00:13:28;;;;;;;8.100001;7.100001;;;;;;;16.63;79.16113;95287.4;;;;
2022/07/28 00:14:28;;;;;;;8.049999;7.249999;;;;;;;16.5;79.50781;95278.02;;;;
2022/07/28 00:15:29;;;;;;;8.049999;7.249999;;;;;;;16.5;79.50781;95278.02;;;;
2022/07/28 00:16:30;;;;;;;8.049999;7.249999;;;;;;;16.5;79.50781;95278.02;;;;
2022/07/28 00:17:30;;;;;;;8.049999;7.249999;;;;;;;16.5;79.50781;95278.02;;;;
2022/07/28 00:18:31;;;;;;;8.049999;7.249999;;;;;;;16.5;79.50781;95278.02;;;;
2022/07/28 00:19:32;;;;;;;8.049999;7.249999;;;;;;;16.5;79.50781;95278.02;;;;
2022/07/28 00:20:32;;;;;;;8.049999;7.249999;;;;;;;16.5;79.50781;95278.02;;;;
2022/07/28 00:21:33;;;;;;;8.049999;7.249999;;;;;;;16.5;79.50781;95278.02;;;;
2022/07/28 00:22:34;;;;;;;8.049999;7.249999;;;;;;;16.5;79.50781;95278.02;;;;
2022/07/28 00:23:40;;;;;;;8.049999;7.249999;;;;;;;16.5;79.50781;95278.02;;;;
2022/07/28 00:24:40;;;;;;;8.399999;7.6;;;;;;;16.31;79.94043;95271.9;;;;
2022/07/28 00:25:41;;;;;;;8.399999;7.6;;;;;;;16.31;79.94043;95271.9;;;;
2022/07/28 00:26:41;;;;;;;8.399999;7.6;;;;;;;16.31;79.94043;95271.9;;;;
2022/07/28 00:27:42;;;;;;;8.399999;7.6;;;;;;;16.31;79.94043;95271.9;;;;
2022/07/28 00:28:42;;;;;;;8.399999;7.6;;;;;;;16.31;79.94043;95271.9;;;;
2022/07/28 00:29:43;;;;;;;8.399999;7.6;;;;;;;16.31;79.94043;95271.9;;;;
2022/07/28 00:30:44;;;;;;;8.399999;7.6;;;;;;;16.31;79.94043;95271.9;;;;
2022/07/28 00:31:44;;;;;;;8.399999;7.6;;;;;;;16.31;79.94043;95271.9;;;;
2022/07/28 00:32:45;;;;;;;8.399999;7.6;;;;;;;16.31;79.94043;95271.9;;;;
2022/07/28 00:33:45;;;;;;;8.399999;7.6;;;;;;;16.31;79.94043;95271.9;;;;
2022/07/28 00:34:46;;;;;;;8.399999;7.6;;;;;;;16.31;79.94043;95271.9;;;;
2022/07/28 00:35:46;;;;;;;8.450002;7.699999;;;;;;;16.19;80.36426;95261.86;;;;
2022/07/28 00:36:47;;;;;;;8.450002;7.699999;;;;;;;16.19;80.36426;95261.86;;;;
2022/07/28 00:37:47;;;;;;;8.450002;7.699999;;;;;;;16.19;80.36426;95261.86;;;;
2022/07/28 00:38:48;;;;;;;8.450002;7.699999;;;;;;;16.19;80.36426;95261.86;;;;
2022/07/28 00:39:48;;;;;;;8.450002;7.699999;;;;;;;16.19;80.36426;95261.86;;;;
2022/07/28 00:41:21;;;;;;;8.450002;7.699999;;;;;;;16.19;80.36426;95261.86;;;;
2022/07/28 00:42:22;;;;;;;8.450002;7.699999;;;;;;;16.19;80.36426;95261.86;;;;
2022/07/28 00:43:22;;;;;;;8.450002;7.699999;;;;;;;16.19;80.36426;95261.86;;;;
2022/07/28 00:44:23;;;;;;;8.450002;7.699999;;;;;;;16.19;80.36426;95261.86;;;;
2022/07/28 00:45:23;;;;;;;8.450002;7.699999;;;;;;;16.19;80.36426;95261.86;;;;
2022/07/28 00:46:24;;;;;;;9.350001;8.450002;;;;;;;16;80.74316;95247.2;;;;
2022/07/28 00:47:24;;;;;;;9.350001;8.450002;;;;;;;16;80.74316;95247.2;;;;
2022/07/28 00:48:25;;;;;;;9.350001;8.450002;;;;;;;16;80.74316;95247.2;;;;
2022/07/28 00:49:25;;;;;;;9.350001;8.450002;;;;;;;16;80.74316;95247.2;;;;
2022/07/28 00:50:26;;;;;;;9.350001;8.450002;;;;;;;16;80.74316;95247.2;;;;
2022/07/28 00:51:28;;;;;;;9.350001;8.450002;;;;;;;16;80.74316;95247.2;;;;
2022/07/28 00:52:29;;;;;;;9.350001;8.450002;;;;;;;16;80.74316;95247.2;;;;
2022/07/28 00:53:30;;;;;;;9.350001;8.450002;;;;;;;16;80.74316;95247.2;;;;
2022/07/28 00:54:30;;;;;;;9.350001;8.450002;;;;;;;16;80.74316;95247.2;;;;
2022/07/28 00:55:31;;;;;;;9.350001;8.450002;;;;;;;16;80.74316;95247.2;;;;
2022/07/28 00:56:32;;;;;;;8.95;8.200001;;;;;;;15.86;81.13086;95234.74;;;;
2022/07/28 00:57:33;;;;;;;8.95;8.200001;;;;;;;15.86;81.13086;95234.74;;;;
2022/07/28 00:58:34;;;;;;;8.95;8.200001;;;;;;;15.86;81.13086;95234.74;;;;
2022/07/28 00:59:36;;;;;;;8.95;8.200001;;;;;;;15.86;81.13086;95234.74;;;;
2022/07/28 01:00:36;;;;;;;8.95;8.200001;;;;;;;15.86;81.13086;95234.74;;;;
2022/07/28 01:01:37;;;;;;;8.95;8.200001;;;;;;;15.86;81.13086;95234.74;;;;
2022/07/28 01:02:37;;;;;;;8.95;8.200001;;;;;;;15.86;81.13086;95234.74;;;;
2022/07/28 01:03:38;;;;;;;8.95;8.200001;;;;;;;15.86;81.13086;95234.74;;;;
2022/07/28 01:04:40;;;;;;;8.95;8.200001;;;;;;;15.86;81.13086;95234.74;;;;
2022/07/28 01:05:41;;;;;;;8.95;8.200001;;;;;;;15.86;81.13086;95234.74;;;;
2022/07/28 01:06:48;;;;;;;8.95;8.200001;;;;;;;15.86;81.13086;95234.74;;;;
2022/07/28 01:08:00;;;;;;;9.4;8.600001;;;;;;;15.65;81.5293;95226.98;;;;
2022/07/28 01:09:08;;;;;;;9.4;8.600001;;;;;;;15.65;81.5293;95226.98;;;;
2022/07/28 01:10:18;;;;;;;9.4;8.600001;;;;;;;15.65;81.5293;95226.98;;;;
2022/07/28 01:11:26;;;;;;;9.4;8.600001;;;;;;;15.65;81.5293;95226.98;;;;
2022/07/28 01:12:30;;;;;;;9.4;8.600001;;;;;;;15.65;81.5293;95226.98;;;;
2022/07/28 01:13:41;;;;;;;9.4;8.600001;;;;;;;15.65;81.5293;95226.98;;;;
2022/07/28 01:14:49;;;;;;;9.4;8.600001;;;;;;;15.65;81.5293;95226.98;;;;
2022/07/28 01:15:55;;;;;;;9.4;8.600001;;;;;;;15.65;81.5293;95226.98;;;;
2022/07/28 01:17:00;;;;;;;9.4;8.600001;;;;;;;15.65;81.5293;95226.98;;;;
2022/07/28 01:18:07;;;;;;;9.85;8.85;;;;;;;15.54;81.97559;95213.23;;;;
2022/07/28 01:19:14;;;;;;;9.85;8.85;;;;;;;15.54;81.97559;95213.23;;;;
2022/07/28 01:20:32;;;;;;;9.85;8.85;;;;;;;15.54;81.97559;95213.23;;;;
2022/07/28 01:21:37;;;;;;;9.85;8.85;;;;;;;15.54;81.97559;95213.23;;;;
2022/07/28 01:22:41;;;;;;;9.85;8.85;;;;;;;15.54;81.97559;95213.23;;;;
2022/07/28 01:24:00;;;;;;;9.85;8.85;;;;;;;15.54;81.97559;95213.23;;;;
2022/07/28 01:25:12;;;;;;;9.85;8.85;;;;;;;15.54;81.97559;95213.23;;;;
2022/07/28 01:26:20;;;;;;;9.85;8.85;;;;;;;15.54;81.97559;95213.23;;;;
2022/07/28 01:27:45;;;;;;;9.85;8.85;;;;;;;15.54;81.97559;95213.23;;;;
2022/07/28 01:28:56;;;;;;;10.85;9.749999;;;;;;;15.41;82.37305;95204.35;;;;
2022/07/28 01:30:02;;;;;;;10.85;9.749999;;;;;;;15.41;82.37305;95204.35;;;;
2022/07/28 01:31:09;;;;;;;10.85;9.749999;;;;;;;15.41;82.37305;95204.35;;;;
2022/07/28 01:32:16;;;;;;;10.85;9.749999;;;;;;;15.41;82.37305;95204.35;;;;
2022/07/28 01:33:19;;;;;;;10.85;9.749999;;;;;;;15.41;82.37305;95204.35;;;;
2022/07/28 01:34:27;;;;;;;10.85;9.749999;;;;;;;15.41;82.37305;95204.35;;;;
2022/07/28 01:35:32;;;;;;;10.85;9.749999;;;;;;;15.41;82.37305;95204.35;;;;
2022/07/28 01:36:41;;;;;;;10.85;9.749999;;;;;;;15.41;82.37305;95204.35;;;;
2022/07/28 01:37:46;;;;;;;10.85;9.749999;;;;;;;15.41;82.37305;95204.35;;;;
2022/07/28 01:38:50;;;;;;;10.85;9.749999;;;;;;;15.41;82.37305;95204.35;;;;
2022/07/28 01:39:52;;;;;;;10.9;9.900001;;;;;;;15.38;82.78223;95194.97;;;;
2022/07/28 01:40:55;;;;;;;10.9;9.900001;;;;;;;15.38;82.78223;95194.97;;;;
2022/07/28 01:41:57;;;;;;;10.9;9.900001;;;;;;;15.38;82.78223;95194.97;;;;
2022/07/28 01:43:00;;;;;;;10.9;9.900001;;;;;;;15.38;82.78223;95194.97;;;;
2022/07/28 01:44:05;;;;;;;10.9;9.900001;;;;;;;15.38;82.78223;95194.97;;;;
2022/07/28 01:45:09;;;;;;;10.9;9.900001;;;;;;;15.38;82.78223;95194.97;;;;
2022/07/28 01:46:11;;;;;;;10.9;9.900001;;;;;;;15.38;82.78223;95194.97;;;;
2022/07/28 01:47:13;;;;;;;10.9;9.900001;;;;;;;15.38;82.78223;95194.97;;;;
2022/07/28 01:48:15;;;;;;;10.9;9.900001;;;;;;;15.38;82.78223;95194.97;;;;
2022/07/28 01:49:18;;;;;;;10.9;9.900001;;;;;;;15.38;82.78223;95194.97;;;;
2022/07/28 01:50:21;;;;;;;11.6;10.45;;;;;;;15.31;83.06055;95198.32;;;;
2022/07/28 01:51:23;;;;;;;11.6;10.45;;;;;;;15.31;83.06055;95198.32;;;;
2022/07/28 01:52:27;;;;;;;11.6;10.45;;;;;;;15.31;83.06055;95198.32;;;;
2022/07/28 01:53:29;;;;;;;11.6;10.45;;;;;;;15.31;83.06055;95198.32;;;;
2022/07/28 01:54:31;;;;;;;11.6;10.45;;;;;;;15.31;83.06055;95198.32;;;;
2022/07/28 01:55:33;;;;;;;11.6;10.45;;;;;;;15.31;83.06055;95198.32;;;;
2022/07/28 01:56:35;;;;;;;11.6;10.45;;;;;;;15.31;83.06055;95198.32;;;;
2022/07/28 01:57:37;;;;;;;11.6;10.45;;;;;;;15.31;83.06055;95198.32;;;;
2022/07/28 01:58:39;;;;;;;11.6;10.45;;;;;;;15.31;83.06055;95198.32;;;;
2022/07/28 01:59:43;;;;;;;11.6;10.45;;;;;;;15.31;83.06055;95198.32;;;;
2022/07/28 02:00:44;;;;;;;11.85;10.7;;;;;;;15.27;83.35547;95192.25;;;;
2022/07/28 02:01:47;;;;;;;11.85;10.7;;;;;;;15.27;83.35547;95192.25;;;;
2022/07/28 02:02:50;;;;;;;11.85;10.7;;;;;;;15.27;83.35547;95192.25;;;;
2022/07/28 02:03:52;;;;;;;11.85;10.7;;;;;;;15.27;83.35547;95192.25;;;;
2022/07/28 02:04:55;;;;;;;11.85;10.7;;;;;;;15.27;83.35547;95192.25;;;;
2022/07/28 02:05:57;;;;;;;11.85;10.7;;;;;;;15.27;83.35547;95192.25;;;;
2022/07/28 02:06:59;;;;;;;11.85;10.7;;;;;;;15.27;83.35547;95192.25;;;;
2022/07/28 02:08:01;;;;;;;11.85;10.7;;;;;;;15.27;83.35547;95192.25;;;;
2022/07/28 02:09:04;;;;;;;11.85;10.7;;;;;;;15.27;83.35547;95192.25;;;;
2022/07/28 02:10:06;;;;;;;11.85;10.7;;;;;;;15.27;83.35547;95192.25;;;;
2022/07/28 02:11:43;;;;;;;12.2;11.1;;;;;;;15.16;83.66113;95198.88;;;;
2022/07/28 02:12:45;;;;;;;12.2;11.1;;;;;;;15.16;83.66113;95198.88;;;;
2022/07/28 02:13:48;;;;;;;12.2;11.1;;;;;;;15.16;83.66113;95198.88;;;;
2022/07/28 02:14:49;;;;;;;12.2;11.1;;;;;;;15.16;83.66113;95198.88;;;;
2022/07/28 02:15:52;;;;;;;12.2;11.1;;;;;;;15.16;83.66113;95198.88;;;;
2022/07/28 02:16:53;;;;;;;12.2;11.1;;;;;;;15.16;83.66113;95198.88;;;;
2022/07/28 02:17:57;;;;;;;12.2;11.1;;;;;;;15.16;83.66113;95198.88;;;;
2022/07/28 02:18:59;;;;;;;12.2;11.1;;;;;;;15.16;83.66113;95198.88;;;;
2022/07/28 02:20:01;;;;;;;12.2;11.1;;;;;;;15.16;83.66113;95198.88;;;;
2022/07/28 02:21:04;;;;;;;12.2;11.1;;;;;;;15.16;83.66113;95198.88;;;;
2022/07/28 02:22:06;;;;;;;13.35;12.15;;;;;;;15.15;84.06055;95186.63;;;;
2022/07/28 02:23:08;;;;;;;13.35;12.15;;;;;;;15.15;84.06055;95186.63;;;;
2022/07/28 02:24:12;;;;;;;13.35;12.15;;;;;;;15.15;84.06055;95186.63;;;;
2022/07/28 02:25:13;;;;;;;13.35;12.15;;;;;;;15.15;84.06055;95186.63;;;;
2022/07/28 02:26:14;;;;;;;13.35;12.15;;;;;;;15.15;84.06055;95186.63;;;;
2022/07/28 02:27:17;;;;;;;13.35;12.15;;;;;;;15.15;84.06055;95186.63;;;;
2022/07/28 02:28:23;;;;;;;13.35;12.15;;;;;;;15.15;84.06055;95186.63;;;;
2022/07/28 02:29:26;;;;;;;13.35;12.15;;;;;;;15.15;84.06055;95186.63;;;;
2022/07/28 02:30:32;;;;;;;13.35;12.15;;;;;;;15.15;84.06055;95186.63;;;;
2022/07/28 02:31:37;;;;;;;13.35;12.15;;;;;;;15.15;84.06055;95186.63;;;;
2022/07/28 02:32:42;;;;;;;13.9;12.7;;;;;;;15.14;84.35059;95177.56;;;;
2022/07/28 02:33:48;;;;;;;13.9;12.7;;;;;;;15.14;84.35059;95177.56;;;;
2022/07/28 02:34:50;;;;;;;13.9;12.7;;;;;;;15.14;84.35059;95177.56;;;;
2022/07/28 02:35:51;;;;;;;13.9;12.7;;;;;;;15.14;84.35059;95177.56;;;;
2022/07/28 02:36:55;;;;;;;13.9;12.7;;;;;;;15.14;84.35059;95177.56;;;;
2022/07/28 02:37:58;;;;;;;13.9;12.7;;;;;;;15.14;84.35059;95177.56;;;;
2022/07/28 02:39:04;;;;;;;13.9;12.7;;;;;;;15.14;84.35059;95177.56;;;;
2022/07/28 02:40:07;;;;;;;13.9;12.7;;;;;;;15.14;84.35059;95177.56;;;;
2022/07/28 02:41:13;;;;;;;13.9;12.7;;;;;;;15.14;84.35059;95177.56;;;;
2022/07/28 02:42:20;;;;;;;13.9;12.7;;;;;;;15.14;84.35059;95177.56;;;;
2022/07/28 02:43:25;;;;;;;14.5;13.15;;;;;;;15.13;84.57813;95184.73;;;;
2022/07/28 02:44:29;;;;;;;14.5;13.15;;;;;;;15.13;84.57813;95184.73;;;;
2022/07/28 02:45:35;;;;;;;14.5;13.15;;;;;;;15.13;84.57813;95184.73;;;;
2022/07/28 02:46:39;;;;;;;14.5;13.15;;;;;;;15.13;84.57813;95184.73;;;;
2022/07/28 02:47:43;;;;;;;14.5;13.15;;;;;;;15.13;84.57813;95184.73;;;;
2022/07/28 02:48:49;;;;;;;14.5;13.15;;;;;;;15.13;84.57813;95184.73;;;;
2022/07/28 02:49:55;;;;;;;14.5;13.15;;;;;;;15.13;84.57813;95184.73;;;;
2022/07/28 02:50:58;;;;;;;14.5;13.15;;;;;;;15.13;84.57813;95184.73;;;;
2022/07/28 02:52:01;;;;;;;14.5;13.15;;;;;;;15.13;84.57813;95184.73;;;;
2022/07/28 02:53:04;;;;;;;14.5;13.15;;;;;;;15.13;84.57813;95184.73;;;;
2022/07/28 02:54:06;;;;;;;13.5;12.3;;;;;;;15.06;84.84473;95172.09;;;;
2022/07/28 02:55:08;;;;;;;13.5;12.3;;;;;;;15.06;84.84473;95172.09;;;;
2022/07/28 02:56:11;;;;;;;13.5;12.3;;;;;;;15.06;84.84473;95172.09;;;;
2022/07/28 02:57:11;;;;;;;13.5;12.3;;;;;;;15.06;84.84473;95172.09;;;;
2022/07/28 02:58:14;;;;;;;13.5;12.3;;;;;;;15.06;84.84473;95172.09;;;;
2022/07/28 02:59:19;;;;;;;13.5;12.3;;;;;;;15.06;84.84473;95172.09;;;;
2022/07/28 03:00:20;;;;;;;13.5;12.3;;;;;;;15.06;84.84473;95172.09;;;;
2022/07/28 03:01:22;;;;;;;13.5;12.3;;;;;;;15.06;84.84473;95172.09;;;;
2022/07/28 03:02:24;;;;;;;13.5;12.3;;;;;;;15.06;84.84473;95172.09;;;;
2022/07/28 03:03:25;;;;;;;13.5;12.3;;;;;;;15.06;84.84473;95172.09;;;;
2022/07/28 03:05:00;;;;;;;15.3;13.9;;;;;;;15.1;85.19922;95174.67;;;;
2022/07/28 03:06:01;;;;;;;15.3;13.9;;;;;;;15.1;85.19922;95174.67;;;;
2022/07/28 03:07:02;;;;;;;15.3;13.9;;;;;;;15.1;85.19922;95174.67;;;;
2022/07/28 03:08:03;;;;;;;15.3;13.9;;;;;;;15.1;85.19922;95174.67;;;;
2022/07/28 03:09:04;;;;;;;15.3;13.9;;;;;;;15.1;85.19922;95174.67;;;;
2022/07/28 03:10:07;;;;;;;15.3;13.9;;;;;;;15.1;85.19922;95174.67;;;;
2022/07/28 03:11:18;;;;;;;15.3;13.9;;;;;;;15.1;85.19922;95174.67;;;;
2022/07/28 03:12:18;;;;;;;15.3;13.9;;;;;;;15.1;85.19922;95174.67;;;;
2022/07/28 03:13:20;;;;;;;15.3;13.9;;;;;;;15.1;85.19922;95174.67;;;;
2022/07/28 03:14:21;;;;;;;15.3;13.9;;;;;;;15.1;85.19922;95174.67;;;;
2022/07/28 03:15:21;;;;;;;14.35;12.95;;;;;;;15.06;85.2998;95188.58;;;;
2022/07/28 03:16:22;;;;;;;14.35;12.95;;;;;;;15.06;85.2998;95188.58;;;;
2022/07/28 03:17:23;;;;;;;14.35;12.95;;;;;;;15.06;85.2998;95188.58;;;;
2022/07/28 03:18:26;;;;;;;14.35;12.95;;;;;;;15.06;85.2998;95188.58;;;;
2022/07/28 03:19:26;;;;;;;14.35;12.95;;;;;;;15.06;85.2998;95188.58;;;;
2022/07/28 03:20:27;;;;;;;14.35;12.95;;;;;;;15.06;85.2998;95188.58;;;;
2022/07/28 03:21:27;;;;;;;14.35;12.95;;;;;;;15.06;85.2998;95188.58;;;;
2022/07/28 03:22:28;;;;;;;14.35;12.95;;;;;;;15.06;85.2998;95188.58;;;;
2022/07/28 03:23:28;;;;;;;14.35;12.95;;;;;;;15.06;85.2998;95188.58;;;;
2022/07/28 03:24:33;;;;;;;14.35;12.95;;;;;;;15.06;85.2998;95188.58;;;;
2022/07/28 03:25:37;;;;;;;14.35;12.95;;;;;;;15.06;85.2998;95188.58;;;;
2022/07/28 03:26:43;;;;;;;14.4;13.15;;;;;;;15;85.42871;95188.22;;;;
2022/07/28 03:27:51;;;;;;;14.4;13.15;;;;;;;15;85.42871;95188.22;;;;
2022/07/28 03:28:53;;;;;;;14.4;13.15;;;;;;;15;85.42871;95188.22;;;;
2022/07/28 03:29:56;;;;;;;14.4;13.15;;;;;;;15;85.42871;95188.22;;;;
2022/07/28 03:31:04;;;;;;;14.4;13.15;;;;;;;15;85.42871;95188.22;;;;
2022/07/28 03:32:08;;;;;;;14.4;13.15;;;;;;;15;85.42871;95188.22;;;;
2022/07/28 03:33:09;;;;;;;14.4;13.15;;;;;;;15;85.42871;95188.22;;;;
2022/07/28 03:34:10;;;;;;;14.4;13.15;;;;;;;15;85.42871;95188.22;;;;
2022/07/28 03:35:11;;;;;;;14.4;13.15;;;;;;;15;85.42871;95188.22;;;;
2022/07/28 03:36:13;;;;;;;14.4;13.15;;;;;;;15;85.42871;95188.22;;;;
2022/07/28 03:37:17;;;;;;;15.35;13.95;;;;;;;14.85;85.63965;95194.09;;;;
2022/07/28 03:38:24;;;;;;;15.35;13.95;;;;;;;14.85;85.63965;95194.09;;;;
2022/07/28 03:39:32;;;;;;;15.35;13.95;;;;;;;14.85;85.63965;95194.09;;;;
2022/07/28 03:40:37;;;;;;;15.35;13.95;;;;;;;14.85;85.63965;95194.09;;;;
2022/07/28 03:41:39;;;;;;;15.35;13.95;;;;;;;14.85;85.63965;95194.09;;;;
2022/07/28 03:42:42;;;;;;;15.35;13.95;;;;;;;14.85;85.63965;95194.09;;;;
2022/07/28 03:43:43;;;;;;;15.35;13.95;;;;;;;14.85;85.63965;95194.09;;;;
2022/07/28 03:44:45;;;;;;;15.35;13.95;;;;;;;14.85;85.63965;95194.09;;;;
2022/07/28 03:45:46;;;;;;;15.35;13.95;;;;;;;14.85;85.63965;95194.09;;;;
2022/07/28 03:46:47;;;;;;;15.35;13.95;;;;;;;14.85;85.63965;95194.09;;;;
2022/07/28 03:47:47;;;;;;;16.05;14.6;;;;;;;14.75;85.89063;95182.48;;;;
2022/07/28 03:48:50;;;;;;;16.05;14.6;;;;;;;14.75;85.89063;95182.48;;;;
2022/07/28 03:49:50;;;;;;;16.05;14.6;;;;;;;14.75;85.89063;95182.48;;;;
2022/07/28 03:50:51;;;;;;;16.05;14.6;;;;;;;14.75;85.89063;95182.48;;;;
2022/07/28 03:51:51;;;;;;;16.05;14.6;;;;;;;14.75;85.89063;95182.48;;;;
2022/07/28 03:52:52;;;;;;;16.05;14.6;;;;;;;14.75;85.89063;95182.48;;;;
2022/07/28 03:53:53;;;;;;;16.05;14.6;;;;;;;14.75;85.89063;95182.48;;;;
2022/07/28 03:54:54;;;;;;;16.05;14.6;;;;;;;14.75;85.89063;95182.48;;;;
2022/07/28 03:55:54;;;;;;;16.05;14.6;;;;;;;14.75;85.89063;95182.48;;;;
2022/07/28 03:56:56;;;;;;;16.05;14.6;;;;;;;14.75;85.89063;95182.48;;;;
2022/07/28 03:57:56;;;;;;;15.4;14;;;;;;;14.61;86.16602;95187.8;;;;
2022/07/28 03:58:57;;;;;;;15.4;14;;;;;;;14.61;86.16602;95187.8;;;;
2022/07/28 03:59:58;;;;;;;15.4;14;;;;;;;14.61;86.16602;95187.8;;;;
2022/07/28 04:00:58;;;;;;;15.4;14;;;;;;;14.61;86.16602;95187.8;;;;
2022/07/28 04:01:59;;;;;;;15.4;14;;;;;;;14.61;86.16602;95187.8;;;;
2022/07/28 04:02:59;;;;;;;15.4;14;;;;;;;14.61;86.16602;95187.8;;;;
2022/07/28 04:04:00;;;;;;;15.4;14;;;;;;;14.61;86.16602;95187.8;;;;
2022/07/28 04:05:00;;;;;;;15.4;14;;;;;;;14.61;86.16602;95187.8;;;;
2022/07/28 04:06:01;;;;;;;15.4;14;;;;;;;14.61;86.16602;95187.8;;;;
2022/07/28 04:07:01;;;;;;;15.4;14;;;;;;;14.61;86.16602;95187.8;;;;
2022/07/28 04:08:02;;;;;;;15.4;14;;;;;;;14.61;86.16602;95187.8;;;;
2022/07/28 04:09:02;;;;;;;16.2;14.75;;;;;;;14.62;86.44922;95186.22;;;;
2022/07/28 04:10:03;;;;;;;16.2;14.75;;;;;;;14.62;86.44922;95186.22;;;;
2022/07/28 04:11:04;;;;;;;16.2;14.75;;;;;;;14.62;86.44922;95186.22;;;;
2022/07/28 04:12:05;;;;;;;16.2;14.75;;;;;;;14.62;86.44922;95186.22;;;;
2022/07/28 04:13:06;;;;;;;16.2;14.75;;;;;;;14.62;86.44922;95186.22;;;;
2022/07/28 04:14:07;;;;;;;16.2;14.75;;;;;;;14.62;86.44922;95186.22;;;;
2022/07/28 04:15:07;;;;;;;16.2;14.75;;;;;;;14.62;86.44922;95186.22;;;;
2022/07/28 04:16:11;;;;;;;16.2;14.75;;;;;;;14.62;86.44922;95186.22;;;;
2022/07/28 04:17:11;;;;;;;16.2;14.75;;;;;;;14.62;86.44922;95186.22;;;;
2022/07/28 04:18:12;;;;;;;16.2;14.75;;;;;;;14.62;86.44922;95186.22;;;;
2022/07/28 04:19:13;;;;;;;16.25;14.7;;;;;;;14.61;86.57715;95189.53;;;;
2022/07/28 04:20:13;;;;;;;16.25;14.7;;;;;;;14.61;86.57715;95189.53;;;;
2022/07/28 04:21:15;;;;;;;16.25;14.7;;;;;;;14.61;86.57715;95189.53;;;;
2022/07/28 04:22:15;;;;;;;16.25;14.7;;;;;;;14.61;86.57715;95189.53;;;;
2022/07/28 04:23:18;;;;;;;16.25;14.7;;;;;;;14.61;86.57715;95189.53;;;;
2022/07/28 04:24:18;;;;;;;16.25;14.7;;;;;;;14.61;86.57715;95189.53;;;;
2022/07/28 04:25:19;;;;;;;16.25;14.7;;;;;;;14.61;86.57715;95189.53;;;;
2022/07/28 04:26:22;;;;;;;16.25;14.7;;;;;;;14.61;86.57715;95189.53;;;;
2022/07/28 04:27:22;;;;;;;16.25;14.7;;;;;;;14.61;86.57715;95189.53;;;;
2022/07/28 04:28:23;;;;;;;16.25;14.7;;;;;;;14.61;86.57715;95189.53;;;;
2022/07/28 04:29:23;;;;;;;16.25;14.7;;;;;;;14.61;86.57715;95189.53;;;;
2022/07/28 04:30:24;;;;;;;16.25;14.7;;;;;;;14.61;86.57715;95189.53;;;;
2022/07/28 04:31:24;;;;;;;16.25;14.7;;;;;;;14.61;86.57715;95189.53;;;;
2022/07/28 04:32:25;;;;;;;16.25;14.7;;;;;;;14.61;86.57715;95189.53;;;;
2022/07/28 04:33:25;;;;;;;16.25;14.7;;;;;;;14.61;86.57715;95189.53;;;;
2022/07/28 04:34:26;;;;;;;16.25;14.7;;;;;;;14.61;86.57715;95189.53;;;;
2022/07/28 04:35:27;;;;;;;16.25;14.7;;;;;;;14.61;86.57715;95189.53;;;;
2022/07/28 04:36:27;;;;;;;16.25;14.7;;;;;;;14.61;86.57715;95189.53;;;;
2022/07/28 04:37:28;;;;;;;16.25;14.7;;;;;;;14.61;86.57715;95189.53;;;;
2022/07/28 04:38:28;;;;;;;16.25;14.7;;;;;;;14.61;86.57715;95189.53;;;;
2022/07/28 04:39:29;;;;;;;16.25;14.7;;;;;;;14.61;86.57715;95189.53;;;;
2022/07/28 04:40:29;;;;;;;16.95;15.25;;;;;;;14.69;86.86426;95194.47;;;;
2022/07/28 04:41:30;;;;;;;16.95;15.25;;;;;;;14.69;86.86426;95194.47;;;;
2022/07/28 04:42:30;;;;;;;16.95;15.25;;;;;;;14.69;86.86426;95194.47;;;;
2022/07/28 04:43:31;;;;;;;16.95;15.25;;;;;;;14.69;86.86426;95194.47;;;;
2022/07/28 04:44:32;;;;;;;16.95;15.25;;;;;;;14.69;86.86426;95194.47;;;;
2022/07/28 04:45:33;;;;;;;16.95;15.25;;;;;;;14.69;86.86426;95194.47;;;;
2022/07/28 04:46:34;;;;;;;16.95;15.25;;;;;;;14.69;86.86426;95194.47;;;;
2022/07/28 04:47:35;;;;;;;16.95;15.25;;;;;;;14.69;86.86426;95194.47;;;;
2022/07/28 04:48:36;;;;;;;16.95;15.25;;;;;;;14.69;86.86426;95194.47;;;;
2022/07/28 04:49:37;;;;;;;16.95;15.25;;;;;;;14.69;86.86426;95194.47;;;;
2022/07/28 04:50:39;;;;;;;16.95;15.25;;;;;;;14.69;86.86426;95194.47;;;;
2022/07/28 04:51:39;;;;;;;16.85;15.05;;;;;;;14.74;87.03613;95201.62;;;;
2022/07/28 04:52:40;;;;;;;16.85;15.05;;;;;;;14.74;87.03613;95201.62;;;;
2022/07/28 04:53:41;;;;;;;16.85;15.05;;;;;;;14.74;87.03613;95201.62;;;;
2022/07/28 04:54:41;;;;;;;16.85;15.05;;;;;;;14.74;87.03613;95201.62;;;;
2022/07/28 04:55:42;;;;;;;16.85;15.05;;;;;;;14.74;87.03613;95201.62;;;;
2022/07/28 04:56:42;;;;;;;16.85;15.05;;;;;;;14.74;87.03613;95201.62;;;;
2022/07/28 04:57:43;;;;;;;16.85;15.05;;;;;;;14.74;87.03613;95201.62;;;;
2022/07/28 04:58:43;;;;;;;16.85;15.05;;;;;;;14.74;87.03613;95201.62;;;;
2022/07/28 04:59:44;;;;;;;16.85;15.05;;;;;;;14.74;87.03613;95201.62;;;;
2022/07/28 05:00:45;;;;;;;16.85;15.05;;;;;;;14.74;87.03613;95201.62;;;;
2022/07/28 05:01:46;;;;;;;16.7;15.2;;;;;;;14.76;87.14746;95203.53;;;;
2022/07/28 05:02:47;;;;;;;16.7;15.2;;;;;;;14.76;87.14746;95203.53;;;;
2022/07/28 05:03:48;;;;;;;16.7;15.2;;;;;;;14.76;87.14746;95203.53;;;;
2022/07/28 05:04:49;;;;;;;16.7;15.2;;;;;;;14.76;87.14746;95203.53;;;;
2022/07/28 05:05:49;;;;;;;16.7;15.2;;;;;;;14.76;87.14746;95203.53;;;;
2022/07/28 05:06:50;;;;;;;16.7;15.2;;;;;;;14.76;87.14746;95203.53;;;;
2022/07/28 05:07:52;;;;;;;16.7;15.2;;;;;;;14.76;87.14746;95203.53;;;;
2022/07/28 05:08:53;;;;;;;16.7;15.2;;;;;;;14.76;87.14746;95203.53;;;;
2022/07/28 05:09:53;;;;;;;16.7;15.2;;;;;;;14.76;87.14746;95203.53;;;;
2022/07/28 05:10:54;;;;;;;16.7;15.2;;;;;;;14.76;87.14746;95203.53;;;;
2022/07/28 05:11:55;;;;;;;16.7;15.2;;;;;;;14.76;87.14746;95203.53;;;;
2022/07/28 05:12:56;;;;;;;15.3;13.9;;;;;;;15.01;87.2627;95206.2;;;;
2022/07/28 05:13:56;;;;;;;15.3;13.9;;;;;;;15.01;87.2627;95206.2;;;;
2022/07/28 05:14:57;;;;;;;15.3;13.9;;;;;;;15.01;87.2627;95206.2;;;;
2022/07/28 05:15:58;;;;;;;15.3;13.9;;;;;;;15.01;87.2627;95206.2;;;;
2022/07/28 05:16:58;;;;;;;15.3;13.9;;;;;;;15.01;87.2627;95206.2;;;;
2022/07/28 05:17:59;;;;;;;15.3;13.9;;;;;;;15.01;87.2627;95206.2;;;;
2022/07/28 05:18:59;;;;;;;15.3;13.9;;;;;;;15.01;87.2627;95206.2;;;;
2022/07/28 05:20:00;;;;;;;15.3;13.9;;;;;;;15.01;87.2627;95206.2;;;;
2022/07/28 05:21:00;;;;;;;15.3;13.9;;;;;;;15.01;87.2627;95206.2;;;;
2022/07/28 05:22:01;;;;;;;15.3;13.9;;;;;;;15.01;87.2627;95206.2;;;;
2022/07/28 05:23:02;;;;;;;15.35;13.9;;;;;;;15.31;87.12695;95205.9;;;;
2022/07/28 05:24:03;;;;;;;15.35;13.9;;;;;;;15.31;87.12695;95205.9;;;;
2022/07/28 05:25:05;;;;;;;15.35;13.9;;;;;;;15.31;87.12695;95205.9;;;;
2022/07/28 05:26:13;;;;;;;15.35;13.9;;;;;;;15.31;87.12695;95205.9;;;;
2022/07/28 05:27:14;;;;;;;15.35;13.9;;;;;;;15.31;87.12695;95205.9;;;;
2022/07/28 05:28:14;;;;;;;15.35;13.9;;;;;;;15.31;87.12695;95205.9;;;;
2022/07/28 05:29:14;;;;;;;15.35;13.9;;;;;;;15.31;87.12695;95205.9;;;;
2022/07/28 05:30:15;;;;;;;15.35;13.9;;;;;;;15.31;87.12695;95205.9;;;;
2022/07/28 05:31:17;;;;;;;15.35;13.9;;;;;;;15.31;87.12695;95205.9;;;;
2022/07/28 05:32:17;;;;;;;15.35;13.9;;;;;;;15.31;87.12695;95205.9;;;;
2022/07/28 05:33:18;;;;;;;15.35;13.9;;;;;;;15.31;87.12695;95205.9;;;;
2022/07/28 05:34:18;;;;;;;15.05;13.65;;;;;;;15.72;87.04492;95207.23;;;;
2022/07/28 05:35:19;;;;;;;15.05;13.65;;;;;;;15.72;87.04492;95207.23;;;;
2022/07/28 05:36:20;;;;;;;15.05;13.65;;;;;;;15.72;87.04492;95207.23;;;;
2022/07/28 05:37:20;;;;;;;15.05;13.65;;;;;;;15.72;87.04492;95207.23;;;;
2022/07/28 05:38:21;;;;;;;15.05;13.65;;;;;;;15.72;87.04492;95207.23;;;;
2022/07/28 05:39:23;;;;;;;15.05;13.65;;;;;;;15.72;87.04492;95207.23;;;;
2022/07/28 05:40:23;;;;;;;15.05;13.65;;;;;;;15.72;87.04492;95207.23;;;;
2022/07/28 05:41:24;;;;;;;15.05;13.65;;;;;;;15.72;87.04492;95207.23;;;;
2022/07/28 05:42:27;;;;;;;15.05;13.65;;;;;;;15.72;87.04492;95207.23;;;;
2022/07/28 05:43:27;;;;;;;15.05;13.65;;;;;;;15.72;87.04492;95207.23;;;;
2022/07/28 05:44:28;;;;;;;14;12.7;;;;;;;16.14;86.65918;95217.78;;;;
2022/07/28 05:45:29;;;;;;;14;12.7;;;;;;;16.14;86.65918;95217.78;;;;